Time;durP1;ratioP1;P1;durP2;ratioP2;P2;SDS_P1;SDS_P2;PMS_P1;PMS_P2;Temp;Humidity;BMP_temperature;BMP_pressure;BME280_temperature;BME280_humidity;BME280_pressure;Samples;Min_cycle;Max_cycle;Signal;HPM_P1;HPM_P2
2024/02/22 00:01:51;;;;;;;3.00;1.77;;;;;;;11.32;68.67;96156.41;4939297;28;20062;-80
2024/02/22 00:04:20;;;;;;;2.30;1.70;;;;;;;10.70;70.97;96122.25;4928450;28;20401;-83
2024/02/22 00:06:45;;;;;;;3.00;1.60;;;;;;;11.25;69.52;96159.34;4925327;29;20046;-79
2024/02/22 00:09:10;;;;;;;1.88;1.60;;;;;;;11.24;69.76;96151.78;5045105;28;20031;-79
2024/02/22 00:11:36;;;;;;;3.10;1.75;;;;;;;11.49;69.45;96147.44;4927505;28;20043;-78
2024/02/22 00:14:01;;;;;;;2.55;1.70;;;;;;;11.31;69.63;96141.84;4952559;28;20110;-77
2024/02/22 00:16:27;;;;;;;2.38;1.45;;;;;;;11.42;69.49;96127.66;4958071;28;20055;-80
2024/02/22 00:18:52;;;;;;;1.58;1.10;;;;;;;11.40;69.51;96127.16;4949060;28;20088;-80
2024/02/22 00:21:17;;;;;;;2.08;1.40;;;;;;;11.34;69.39;96110.00;4934858;28;20156;-80
2024/02/22 00:23:43;;;;;;;1.77;1.33;;;;;;;11.34;69.30;96115.22;4950547;28;20035;-79
2024/02/22 00:26:08;;;;;;;2.55;1.45;;;;;;;11.31;69.17;96107.19;4961089;28;20031;-80
2024/02/22 00:28:33;;;;;;;1.63;1.30;;;;;;;11.51;69.01;96121.84;4959542;28;20532;-79
2024/02/22 00:30:59;;;;;;;1.92;1.30;;;;;;;11.29;69.22;96094.41;4945402;28;20026;-80
2024/02/22 00:33:24;;;;;;;2.13;1.45;;;;;;;11.51;69.15;96106.22;4948038;28;20039;-80
2024/02/22 00:35:50;;;;;;;1.90;1.30;;;;;;;11.51;68.68;96101.78;4942624;28;20118;-80
2024/02/22 00:38:15;;;;;;;1.85;1.20;;;;;;;11.30;69.33;96106.41;4956507;28;20030;-79
2024/02/22 00:40:40;;;;;;;1.05;1.00;;;;;;;11.37;69.92;96104.25;4925903;29;20046;-80
2024/02/22 00:43:06;;;;;;;1.90;1.17;;;;;;;11.43;70.00;96091.97;5028328;28;20042;-80
2024/02/22 00:45:34;;;;;;;1.83;0.80;;;;;;;11.50;68.87;96081.19;4944687;28;20038;-79
2024/02/22 00:48:00;;;;;;;1.20;0.77;;;;;;;11.40;69.33;96075.03;5014127;28;20426;-79
2024/02/22 00:50:28;;;;;;;1.80;1.40;;;;;;;11.24;70.43;96076.22;4961515;28;20031;-80
2024/02/22 00:52:55;;;;;;;2.08;0.80;;;;;;;11.30;70.08;96067.31;4965544;28;20062;-80
2024/02/22 00:55:21;;;;;;;1.27;0.88;;;;;;;11.34;69.72;96070.91;4943752;28;20047;-80
2024/02/22 00:57:46;;;;;;;2.53;0.95;;;;;;;11.18;70.13;96072.13;4949465;28;20192;-82
2024/02/22 01:00:11;;;;;;;2.80;0.90;;;;;;;11.36;70.45;96066.22;4946374;28;20039;-80
2024/02/22 01:02:38;;;;;;;0.90;0.77;;;;;;;11.39;69.67;96063.06;4949023;28;20334;-82
2024/02/22 01:05:04;;;;;;;1.55;0.75;;;;;;;11.45;69.94;96069.00;4964471;28;20164;-81
2024/02/22 01:07:31;;;;;;;1.08;0.90;;;;;;;11.45;70.09;96063.78;4942554;28;20088;-81
2024/02/22 01:09:57;;;;;;;1.55;0.80;;;;;;;11.49;69.98;96048.38;4949156;28;20035;-80
2024/02/22 01:12:22;;;;;;;1.40;0.70;;;;;;;11.40;70.35;96048.22;4960582;28;20058;-80
2024/02/22 01:14:47;;;;;;;2.05;0.70;;;;;;;11.47;70.31;96037.47;4949095;28;20035;-80
2024/02/22 01:17:13;;;;;;;1.55;0.70;;;;;;;11.63;69.25;96054.47;4964703;28;20039;-80
2024/02/22 01:19:38;;;;;;;1.05;0.70;;;;;;;11.37;70.35;96033.88;4965238;28;20031;-83
2024/02/22 01:22:04;;;;;;;0.80;0.70;;;;;;;11.20;70.60;96020.53;4949928;28;20038;-82
2024/02/22 01:24:30;;;;;;;2.30;0.90;;;;;;;11.35;70.12;96022.97;4953431;28;20038;-80
2024/02/22 01:26:55;;;;;;;0.85;0.63;;;;;;;11.55;70.08;96015.97;4957375;28;20057;-80
2024/02/22 01:29:21;;;;;;;1.20;0.60;;;;;;;11.56;69.79;96004.50;4929399;28;20039;-80
2024/02/22 01:31:46;;;;;;;0.77;0.77;;;;;;;11.62;69.44;96006.75;4963404;28;20050;-80
2024/02/22 01:34:11;;;;;;;1.45;0.70;;;;;;;11.55;69.93;96018.56;4923751;28;20540;-80
2024/02/22 01:36:37;;;;;;;1.15;0.68;;;;;;;11.40;69.98;95991.63;4961055;28;20050;-82
2024/02/22 01:39:04;;;;;;;0.65;0.65;;;;;;;11.50;70.32;96000.38;4936722;28;20069;-80
2024/02/22 01:41:29;;;;;;;0.63;0.40;;;;;;;11.45;70.68;95983.00;4959263;28;20093;-80
2024/02/22 01:43:55;;;;;;;0.70;0.50;;;;;;;11.58;69.75;95997.16;4959789;28;20042;-83
2024/02/22 01:46:20;;;;;;;0.50;0.40;;;;;;;11.53;69.72;95968.56;4945541;28;20087;-84
2024/02/22 01:48:46;;;;;;;0.55;0.50;;;;;;;11.36;70.71;95969.00;4965417;28;20213;-83
2024/02/22 01:51:12;;;;;;;0.90;0.65;;;;;;;11.66;70.59;95973.09;4945700;28;20045;-82
2024/02/22 01:53:38;;;;;;;0.88;0.60;;;;;;;11.37;70.27;95955.72;4948584;28;20039;-80
2024/02/22 01:56:03;;;;;;;0.95;0.75;;;;;;;11.51;70.29;95962.84;4921757;28;20039;-81
2024/02/22 01:58:34;;;;;;;1.98;0.57;;;;;;;11.75;69.99;95958.34;4937534;28;20104;-80
2024/02/22 02:01:01;;;;;;;0.95;0.63;;;;;;;11.79;69.95;95946.31;4966391;28;20083;-81
2024/02/22 02:03:27;;;;;;;1.48;0.60;;;;;;;11.42;70.73;95931.41;4967130;28;20039;-82
2024/02/22 02:05:53;;;;;;;1.08;0.50;;;;;;;11.67;69.93;95938.16;4951648;28;20391;-80
2024/02/22 02:08:18;;;;;;;0.70;0.57;;;;;;;11.64;70.27;95943.91;4952732;28;20037;-81
2024/02/22 02:10:45;;;;;;;0.55;0.50;;;;;;;11.71;69.81;95939.13;4944588;28;20391;-83
2024/02/22 02:13:10;;;;;;;0.65;0.50;;;;;;;11.55;70.16;95922.91;4967154;28;20502;-84
2024/02/22 02:15:36;;;;;;;0.50;0.40;;;;;;;11.76;70.19;95927.84;4968255;28;20379;-84
2024/02/22 02:18:01;;;;;;;0.60;0.35;;;;;;;11.68;69.40;95907.63;4956673;28;20069;-85
2024/02/22 02:20:27;;;;;;;0.95;0.50;;;;;;;11.70;69.60;95911.50;4956246;28;20035;-84
2024/02/22 02:23:11;;;;;;;0.50;0.35;;;;;;;11.88;69.93;95904.72;4952999;28;20063;-84
2024/02/22 02:25:36;;;;;;;0.52;0.30;;;;;;;11.61;70.79;95910.56;4952628;28;20461;-85
2024/02/22 02:28:02;;;;;;;1.52;0.50;;;;;;;11.59;70.73;95905.66;4954886;28;20108;-88
2024/02/22 02:30:27;;;;;;;0.88;0.30;;;;;;;11.61;70.23;95894.94;4966326;28;20031;-90
2024/02/22 02:32:53;;;;;;;0.68;0.30;;;;;;;11.64;70.03;95870.91;4964253;28;20073;-87
2024/02/22 02:35:18;;;;;;;0.65;0.40;;;;;;;11.58;70.14;95887.69;4954502;28;20035;-85
2024/02/22 02:37:43;;;;;;;0.57;0.30;;;;;;;11.65;70.45;95856.03;4966351;28;20034;-85
2024/02/22 02:40:09;;;;;;;0.35;0.30;;;;;;;11.48;70.38;95853.94;4954258;28;20043;-89
2024/02/22 02:42:35;;;;;;;0.40;0.32;;;;;;;11.64;69.54;95839.63;4940545;29;20103;-87
2024/02/22 02:45:00;;;;;;;1.75;0.40;;;;;;;11.83;68.93;95857.09;5050226;28;20046;-88
2024/02/22 02:47:25;;;;;;;1.45;0.40;;;;;;;11.88;69.14;95860.38;4960229;28;20031;-84
2024/02/22 02:49:51;;;;;;;0.38;0.30;;;;;;;11.58;70.24;95825.91;5016790;28;20035;-88
2024/02/22 02:52:16;;;;;;;0.40;0.30;;;;;;;11.58;70.30;95851.97;4952674;28;20120;-87
2024/02/22 02:54:41;;;;;;;0.93;0.38;;;;;;;11.74;69.90;95843.94;4948781;28;20037;-90
2024/02/22 02:57:07;;;;;;;0.55;0.50;;;;;;;11.72;70.51;95836.38;4936940;28;20035;-88
2024/02/22 02:59:32;;;;;;;0.50;0.30;;;;;;;11.67;70.17;95836.47;4955078;28;20057;-86
2024/02/22 03:01:57;;;;;;;0.63;0.38;;;;;;;11.79;69.99;95839.41;4951525;28;20043;-87
2024/02/22 03:04:23;;;;;;;0.40;0.30;;;;;;;11.73;69.50;95827.50;4949155;28;20034;-88
2024/02/22 03:06:48;;;;;;;0.30;0.30;;;;;;;11.50;70.69;95838.78;4946679;28;20023;-85
2024/02/22 03:09:14;;;;;;;0.40;0.40;;;;;;;11.44;71.34;95820.59;4967290;28;20043;-85
2024/02/22 03:11:40;;;;;;;0.50;0.40;;;;;;;11.61;70.29;95822.72;4920664;28;20085;-84
2024/02/22 03:14:06;;;;;;;0.70;0.40;;;;;;;11.57;71.38;95826.19;4942750;28;20035;-87
2024/02/22 03:16:32;;;;;;;0.40;0.30;;;;;;;11.79;69.93;95831.56;4950339;28;20463;-87
2024/02/22 03:18:58;;;;;;;0.90;0.50;;;;;;;11.70;70.01;95822.84;4929142;29;20089;-83
2024/02/22 03:21:25;;;;;;;0.30;0.30;;;;;;;11.70;69.98;95816.84;4965411;28;20054;-84
2024/02/22 03:23:54;;;;;;;0.60;0.30;;;;;;;11.84;69.96;95822.91;4949064;28;20522;-83
2024/02/22 03:26:23;;;;;;;0.85;0.50;;;;;;;11.63;70.90;95809.41;4951586;28;20113;-87
2024/02/22 03:28:51;;;;;;;0.45;0.40;;;;;;;11.70;70.41;95801.97;4926008;28;20024;-87
2024/02/22 03:31:18;;;;;;;0.30;0.30;;;;;;;11.79;70.47;95815.94;4923296;28;20074;-87
2024/02/22 03:33:44;;;;;;;0.65;0.40;;;;;;;11.82;70.40;95804.13;4922430;28;20031;-84
2024/02/22 03:36:10;;;;;;;1.48;0.40;;;;;;;11.81;69.71;95800.00;4925933;28;20226;-90
2024/02/22 03:38:38;;;;;;;0.93;0.40;;;;;;;11.93;70.30;95816.00;4946773;28;20158;-85
2024/02/22 03:41:04;;;;;;;0.40;0.40;;;;;;;11.88;70.27;95808.22;5013906;28;20035;-83
2024/02/22 03:43:31;;;;;;;0.50;0.50;;;;;;;11.85;70.08;95800.19;4938760;28;20031;-83
2024/02/22 03:45:57;;;;;;;1.02;0.93;;;;;;;11.87;70.01;95800.69;4959428;28;20034;-84
2024/02/22 03:48:22;;;;;;;0.30;0.30;;;;;;;11.85;69.73;95805.41;4945546;28;20518;-86
2024/02/22 03:50:48;;;;;;;0.30;0.30;;;;;;;11.67;70.57;95794.75;5001684;28;20042;-85
2024/02/22 03:53:15;;;;;;;0.60;0.40;;;;;;;11.55;70.22;95779.53;4950366;28;20045;-86
2024/02/22 03:55:41;;;;;;;0.25;0.25;;;;;;;11.48;71.25;95786.97;4933995;28;20620;-85
2024/02/22 03:58:07;;;;;;;1.23;0.30;;;;;;;11.56;71.39;95770.66;4921376;28;20043;-83
2024/02/22 04:00:36;;;;;;;0.70;0.40;;;;;;;11.95;70.96;95763.53;5013483;28;20039;-87
2024/02/22 04:03:02;;;;;;;1.35;0.28;;;;;;;11.84;70.72;95759.53;4941134;28;20498;-87
2024/02/22 04:05:28;;;;;;;0.60;0.20;;;;;;;11.99;70.21;95748.84;4939279;28;20043;-85
2024/02/22 04:07:56;;;;;;;0.32;0.30;;;;;;;11.98;70.11;95747.31;4939938;28;20027;-88
2024/02/22 04:10:22;;;;;;;1.42;0.30;;;;;;;12.07;69.61;95750.03;5017698;28;20034;-84
2024/02/22 04:12:47;;;;;;;0.38;0.30;;;;;;;11.89;69.51;95749.81;4970629;28;20490;-85
2024/02/22 04:15:14;;;;;;;0.28;0.20;;;;;;;11.97;69.61;95748.38;4950635;28;20035;-83
2024/02/22 04:17:40;;;;;;;0.20;0.20;;;;;;;11.95;70.33;95745.28;4941355;28;20059;-83
2024/02/22 04:20:09;;;;;;;0.20;0.20;;;;;;;11.74;70.58;95744.84;5015816;28;20038;-88
2024/02/22 04:22:49;;;;;;;0.40;0.30;;;;;;;11.92;70.41;95745.84;4938497;28;20074;-89
2024/02/22 04:25:16;;;;;;;0.40;0.30;;;;;;;11.92;70.29;95735.44;4944468;28;20391;-90
2024/02/22 04:27:42;;;;;;;0.20;0.20;;;;;;;11.86;70.15;95736.53;4947056;28;20059;-84
2024/02/22 04:30:08;;;;;;;0.73;0.20;;;;;;;11.91;70.36;95726.03;4949054;28;20063;-83
2024/02/22 04:32:34;;;;;;;0.20;0.20;;;;;;;11.86;70.03;95723.50;4952994;28;20038;-89
2024/02/22 04:35:00;;;;;;;1.88;0.30;;;;;;;11.80;70.75;95713.16;4964390;28;20038;-83
2024/02/22 04:37:25;;;;;;;0.38;0.20;;;;;;;11.62;70.85;95717.38;4963674;28;20376;-85
2024/02/22 04:39:51;;;;;;;0.20;0.20;;;;;;;11.54;71.50;95699.03;4957121;28;20034;-82
2024/02/22 04:42:16;;;;;;;0.20;0.20;;;;;;;11.52;71.17;95693.31;4964526;28;20403;-83
2024/02/22 04:44:44;;;;;;;0.35;0.20;;;;;;;11.74;71.07;95713.56;4947854;28;20070;-87
2024/02/22 04:47:09;;;;;;;0.75;0.40;;;;;;;11.80;70.03;95691.53;4954391;28;20039;-80
2024/02/22 04:49:34;;;;;;;0.20;0.20;;;;;;;11.77;70.10;95676.44;4920450;29;20038;-85
2024/02/22 04:52:03;;;;;;;1.35;0.20;;;;;;;11.92;69.76;95698.91;5025342;28;20031;-83
2024/02/22 04:54:31;;;;;;;0.20;0.20;;;;;;;11.50;72.04;95698.81;4951823;28;20042;-81
2024/02/22 04:56:57;;;;;;;0.30;0.30;;;;;;;11.68;71.63;95692.00;4928247;29;20273;-84
2024/02/22 04:59:24;;;;;;;0.50;0.20;;;;;;;11.67;71.60;95682.63;4960303;28;20039;-84
2024/02/22 05:01:50;;;;;;;0.30;0.20;;;;;;;11.75;70.84;95684.56;4931816;28;20023;-83
2024/02/22 05:04:17;;;;;;;0.20;0.20;;;;;;;11.93;70.56;95685.59;4948183;28;20070;-81
2024/02/22 05:06:43;;;;;;;0.20;0.20;;;;;;;11.59;71.02;95675.47;4965238;28;20499;-85
2024/02/22 05:09:13;;;;;;;0.30;0.20;;;;;;;11.35;71.96;95659.97;4925525;28;20027;-88
2024/02/22 05:11:48;;;;;;;0.30;0.30;;;;;;;11.77;70.64;95677.25;4951968;28;20027;-83
2024/02/22 05:14:16;;;;;;;0.30;0.30;;;;;;;11.74;70.86;95661.41;4958421;28;20046;-81
2024/02/22 05:16:41;;;;;;;0.40;0.38;;;;;;;11.81;70.92;95673.00;4960296;28;20154;-81
2024/02/22 05:19:07;;;;;;;0.30;0.30;;;;;;;11.84;70.82;95673.47;4946422;28;20126;-82
2024/02/22 05:21:32;;;;;;;0.70;0.68;;;;;;;11.76;70.77;95654.81;4965262;28;20069;-86
2024/02/22 05:23:58;;;;;;;0.47;0.32;;;;;;;11.87;70.48;95657.25;4957555;28;20027;-82
2024/02/22 05:26:23;;;;;;;0.50;0.50;;;;;;;11.89;69.85;95655.13;4948935;29;20039;-83
2024/02/22 05:28:49;;;;;;;0.35;0.30;;;;;;;11.78;69.77;95626.63;4941570;28;20118;-82
2024/02/22 05:31:23;;;;;;;0.68;0.50;;;;;;;12.03;70.03;95645.50;5036713;28;20038;-84
2024/02/22 05:33:48;;;;;;;0.68;0.30;;;;;;;11.49;71.57;95623.53;4947679;29;20054;-82
2024/02/22 05:36:16;;;;;;;0.65;0.50;;;;;;;11.63;71.46;95632.13;4964408;28;20032;-83
2024/02/22 05:38:42;;;;;;;0.57;0.30;;;;;;;11.72;71.18;95629.63;4936318;28;20122;-81
2024/02/22 05:41:07;;;;;;;1.13;0.60;;;;;;;11.78;70.54;95633.69;4948106;28;20178;-84
2024/02/22 05:43:33;;;;;;;0.40;0.40;;;;;;;12.01;69.94;95623.38;4960260;28;20066;-82
2024/02/22 05:45:58;;;;;;;0.75;0.70;;;;;;;11.78;70.34;95605.75;4970186;28;20027;-83
2024/02/22 05:48:23;;;;;;;0.50;0.40;;;;;;;11.74;70.89;95615.25;4966025;28;20035;-81
2024/02/22 05:50:49;;;;;;;1.00;0.40;;;;;;;11.92;70.24;95602.41;4965976;28;20632;-82
2024/02/22 05:53:14;;;;;;;0.50;0.50;;;;;;;11.81;71.17;95601.81;4944801;28;20031;-81
2024/02/22 05:55:39;;;;;;;0.50;0.40;;;;;;;12.01;70.73;95605.88;4947424;28;20045;-81
2024/02/22 05:58:05;;;;;;;0.90;0.40;;;;;;;12.08;70.09;95608.88;4963129;28;20036;-81
2024/02/22 06:00:31;;;;;;;0.60;0.50;;;;;;;12.05;69.84;95604.25;4951691;28;20256;-81
2024/02/22 06:02:57;;;;;;;0.70;0.50;;;;;;;11.90;70.73;95587.03;4960557;28;20100;-84
2024/02/22 06:05:22;;;;;;;0.60;0.40;;;;;;;12.06;69.87;95590.13;5037347;28;20428;-81
2024/02/22 06:07:48;;;;;;;0.93;0.50;;;;;;;11.98;70.10;95594.19;4950387;28;20066;-82
2024/02/22 06:10:13;;;;;;;0.68;0.32;;;;;;;12.08;70.09;95582.78;4934072;28;20473;-82
2024/02/22 06:12:40;;;;;;;0.43;0.35;;;;;;;11.95;70.35;95580.97;4944298;28;20035;-82
2024/02/22 06:15:06;;;;;;;0.73;0.55;;;;;;;12.00;70.23;95583.47;4928968;28;20109;-81
2024/02/22 06:17:35;;;;;;;0.90;0.50;;;;;;;11.86;70.44;95577.44;4960129;28;20042;-84
2024/02/22 06:20:03;;;;;;;0.63;0.40;;;;;;;11.91;70.32;95567.75;4939968;29;20027;-87
2024/02/22 06:22:28;;;;;;;0.90;0.55;;;;;;;11.79;71.34;95578.63;5012268;28;20115;-89
2024/02/22 06:24:54;;;;;;;0.98;0.30;;;;;;;11.72;71.62;95549.56;4952698;28;20117;-89
2024/02/22 06:27:19;;;;;;;0.80;0.40;;;;;;;12.01;71.18;95571.19;4944702;28;20034;-88
2024/02/22 06:29:46;;;;;;;1.05;0.47;;;;;;;11.94;70.80;95566.38;4969911;28;20088;-89
2024/02/22 06:32:11;;;;;;;0.43;0.38;;;;;;;11.79;71.05;95563.00;4937527;28;20045;-87
2024/02/22 06:34:37;;;;;;;1.05;0.50;;;;;;;11.73;71.01;95548.50;4938742;28;20031;-85
2024/02/22 06:37:03;;;;;;;0.60;0.60;;;;;;;12.10;70.09;95564.25;4933931;28;20424;-84
2024/02/22 06:39:28;;;;;;;1.08;0.40;;;;;;;12.06;70.83;95556.19;4951038;28;20030;-86
2024/02/22 06:41:54;;;;;;;0.50;0.50;;;;;;;12.01;71.17;95552.94;4970761;28;20039;-85
2024/02/22 06:44:19;;;;;;;1.75;0.50;;;;;;;12.32;70.05;95577.31;4949925;28;20069;-84
2024/02/22 06:46:45;;;;;;;0.85;0.70;;;;;;;11.96;71.12;95544.16;4954266;28;20034;-87
2024/02/22 06:49:11;;;;;;;0.40;0.40;;;;;;;12.00;71.26;95565.22;4953640;28;20031;-85
2024/02/22 06:51:37;;;;;;;0.35;0.35;;;;;;;12.08;70.55;95541.06;4939032;28;20288;-85
2024/02/22 06:54:02;;;;;;;0.63;0.50;;;;;;;11.96;71.47;95548.59;4926160;28;20023;-87
2024/02/22 06:56:28;;;;;;;0.93;0.50;;;;;;;12.17;71.08;95541.13;4965430;28;20038;-86
2024/02/22 06:58:54;;;;;;;0.40;0.40;;;;;;;12.15;70.71;95551.84;5022536;28;20567;-82
2024/02/22 07:01:20;;;;;;;0.63;0.45;;;;;;;12.12;70.33;95534.16;5051696;28;20023;-83
2024/02/22 07:03:45;;;;;;;0.85;0.50;;;;;;;11.97;71.21;95532.66;4956854;28;20062;-88
2024/02/22 07:06:11;;;;;;;0.50;0.40;;;;;;;12.24;70.61;95540.72;4955095;28;20039;-82
2024/02/22 07:08:38;;;;;;;0.60;0.40;;;;;;;11.87;72.42;95521.63;4948794;28;20109;-84
2024/02/22 07:11:04;;;;;;;0.50;0.50;;;;;;;12.12;70.80;95521.13;4962508;28;20386;-81
2024/02/22 07:13:32;;;;;;;2.00;0.50;;;;;;;12.18;71.39;95529.59;4949575;28;20035;-81
2024/02/22 07:15:58;;;;;;;0.30;0.30;;;;;;;12.10;71.59;95502.38;4965948;28;20027;-85
2024/02/22 07:18:23;;;;;;;0.50;0.40;;;;;;;12.25;70.49;95521.38;4934960;28;20104;-82
2024/02/22 07:20:49;;;;;;;0.95;0.40;;;;;;;12.17;71.29;95491.56;4951267;28;20035;-89
2024/02/22 07:23:14;;;;;;;0.93;0.30;;;;;;;12.18;70.93;95508.72;4948644;28;20538;-85
2024/02/22 07:25:40;;;;;;;0.70;0.40;;;;;;;12.23;70.71;95510.47;5035237;28;20035;-82
2024/02/22 07:28:10;;;;;;;0.43;0.40;;;;;;;12.24;70.65;95501.59;4948090;28;20031;-83
2024/02/22 07:30:36;;;;;;;0.57;0.40;;;;;;;12.05;70.80;95489.47;4955112;28;20499;-87
2024/02/22 07:33:01;;;;;;;0.45;0.32;;;;;;;12.31;70.64;95505.31;4943181;28;20039;-88
2024/02/22 07:35:27;;;;;;;0.32;0.32;;;;;;;12.38;70.47;95488.47;5016150;28;20042;-81
2024/02/22 07:37:54;;;;;;;0.30;0.30;;;;;;;12.54;69.84;95494.84;4936255;28;20517;-82
2024/02/22 07:40:20;;;;;;;1.40;0.35;;;;;;;12.20;71.52;95484.94;4964448;28;20043;-86
2024/02/22 07:42:45;;;;;;;0.40;0.40;;;;;;;12.41;69.93;95485.28;5002478;28;20023;-83
2024/02/22 07:45:11;;;;;;;0.55;0.52;;;;;;;12.22;71.08;95477.59;4934529;28;20049;-84
2024/02/22 07:47:36;;;;;;;0.80;0.40;;;;;;;12.35;70.18;95471.56;4943214;28;20035;-85
2024/02/22 07:50:02;;;;;;;0.63;0.38;;;;;;;12.38;71.15;95491.09;4950455;28;20081;-82
2024/02/22 07:52:27;;;;;;;1.05;0.38;;;;;;;12.19;71.62;95486.81;4946585;28;20031;-83
2024/02/22 07:54:53;;;;;;;0.57;0.57;;;;;;;12.21;71.82;95483.91;4956485;28;20038;-83
2024/02/22 07:57:19;;;;;;;0.47;0.30;;;;;;;12.43;71.07;95491.72;4923290;28;21066;-84
2024/02/22 07:59:45;;;;;;;0.68;0.55;;;;;;;12.35;71.42;95482.78;4961782;28;20035;-83
2024/02/22 08:02:10;;;;;;;0.40;0.40;;;;;;;12.18;71.34;95482.63;4948885;28;20525;-84
2024/02/22 08:04:36;;;;;;;0.30;0.30;;;;;;;12.21;71.60;95482.06;4947122;28;20427;-82
2024/02/22 08:07:03;;;;;;;0.50;0.40;;;;;;;12.21;71.48;95463.03;4947133;28;20062;-85
2024/02/22 08:09:28;;;;;;;0.50;0.43;;;;;;;12.14;72.58;95479.09;4934238;28;20093;-85
2024/02/22 08:11:54;;;;;;;0.50;0.50;;;;;;;12.36;71.71;95478.31;4983897;28;20024;-82
2024/02/22 08:14:36;;;;;;;0.47;0.30;;;;;;;12.49;70.99;95485.31;5045694;28;20984;-86
2024/02/22 08:17:01;;;;;;;1.20;0.50;;;;;;;12.60;69.96;95477.25;5007218;28;20025;-83
2024/02/22 08:19:27;;;;;;;0.30;0.20;;;;;;;12.54;71.34;95474.75;5008451;28;20465;-80
2024/02/22 08:21:53;;;;;;;1.58;0.65;;;;;;;12.42;70.93;95466.69;5027663;28;20033;-83
2024/02/22 08:24:22;;;;;;;0.43;0.32;;;;;;;12.69;70.85;95467.63;5008829;28;20045;-86
2024/02/22 08:26:47;;;;;;;0.50;0.30;;;;;;;12.39;71.49;95461.28;5029878;28;20021;-83
2024/02/22 08:29:13;;;;;;;0.50;0.50;;;;;;;12.65;70.41;95470.06;5021225;28;20036;-81
2024/02/22 08:31:38;;;;;;;0.40;0.40;;;;;;;12.52;70.92;95458.59;5033627;28;20100;-80
2024/02/22 08:34:05;;;;;;;0.40;0.40;;;;;;;12.83;71.00;95455.22;5007125;28;20028;-84
2024/02/22 08:36:31;;;;;;;0.70;0.50;;;;;;;12.73;71.37;95452.88;5019700;28;20057;-83
2024/02/22 08:38:58;;;;;;;0.40;0.30;;;;;;;12.54;70.62;95427.78;5023934;28;20057;-82
2024/02/22 08:41:25;;;;;;;0.40;0.40;;;;;;;12.82;70.09;95448.47;5015226;28;20079;-83
2024/02/22 08:43:51;;;;;;;0.55;0.30;;;;;;;12.88;70.60;95436.81;5007271;28;20033;-82
2024/02/22 08:46:17;;;;;;;0.40;0.30;;;;;;;12.71;70.04;95429.69;5027095;28;20037;-85
2024/02/22 08:48:42;;;;;;;0.63;0.40;;;;;;;12.54;71.13;95411.31;5006385;28;20034;-82
2024/02/22 08:51:11;;;;;;;0.73;0.30;;;;;;;12.84;70.77;95411.63;5011733;28;20028;-84
2024/02/22 08:53:38;;;;;;;0.60;0.30;;;;;;;12.50;70.56;95413.75;5062086;28;20135;-84
2024/02/22 08:56:09;;;;;;;0.68;0.38;;;;;;;12.81;71.17;95418.19;5022642;28;20496;-80
2024/02/22 08:58:37;;;;;;;1.05;0.40;;;;;;;12.43;72.07;95399.59;5025265;28;20389;-87
2024/02/22 09:01:03;;;;;;;0.85;0.30;;;;;;;12.50;71.46;95408.53;5017631;28;20034;-86
2024/02/22 09:03:29;;;;;;;0.35;0.32;;;;;;;12.54;71.28;95406.09;5012460;28;20080;-84
2024/02/22 09:05:54;;;;;;;0.30;0.30;;;;;;;12.32;72.82;95397.25;5016634;28;20057;-84
2024/02/22 09:08:20;;;;;;;0.75;0.60;;;;;;;12.53;71.81;95388.91;5005160;28;20093;-84
2024/02/22 09:10:48;;;;;;;0.32;0.22;;;;;;;12.48;72.06;95384.59;5015526;28;20044;-81
2024/02/22 09:13:13;;;;;;;1.27;0.30;;;;;;;12.55;71.98;95384.16;5003582;28;20034;-82
2024/02/22 09:15:39;;;;;;;0.30;0.30;;;;;;;12.33;72.85;95385.72;5029646;28;20044;-84
2024/02/22 09:18:05;;;;;;;0.65;0.60;;;;;;;12.61;72.67;95400.44;4998395;28;20307;-83
2024/02/22 09:20:30;;;;;;;0.40;0.30;;;;;;;12.59;71.82;95372.03;5028619;28;20042;-86
2024/02/22 09:22:56;;;;;;;0.20;0.20;;;;;;;12.69;71.75;95402.34;5009172;28;20025;-82
2024/02/22 09:25:21;;;;;;;0.40;0.30;;;;;;;12.83;71.48;95382.09;5003961;28;20026;-84
2024/02/22 09:27:46;;;;;;;0.30;0.30;;;;;;;12.65;71.99;95376.06;5013109;28;20034;-86
2024/02/22 09:30:12;;;;;;;0.35;0.28;;;;;;;12.76;71.37;95381.00;4982846;28;20025;-84
2024/02/22 09:32:38;;;;;;;0.40;0.40;;;;;;;12.74;71.57;95363.78;4987558;28;20096;-82
2024/02/22 09:35:03;;;;;;;0.30;0.30;;;;;;;12.77;71.88;95351.22;4984308;28;20038;-85
2024/02/22 09:37:30;;;;;;;0.47;0.38;;;;;;;12.74;71.88;95339.53;4989294;28;20030;-84
2024/02/22 09:39:56;;;;;;;0.30;0.30;;;;;;;12.92;71.00;95351.56;5005347;28;20160;-85
2024/02/22 09:42:26;;;;;;;0.30;0.30;;;;;;;12.97;71.23;95342.03;4990654;28;20516;-85
2024/02/22 09:44:55;;;;;;;0.85;0.60;;;;;;;12.97;71.51;95339.44;5009211;28;20030;-85
2024/02/22 09:47:21;;;;;;;0.35;0.30;;;;;;;12.99;70.29;95326.81;5014752;28;20089;-87
2024/02/22 09:49:46;;;;;;;0.30;0.30;;;;;;;13.10;70.66;95338.53;5009926;28;20368;-85
2024/02/22 09:52:15;;;;;;;0.65;0.30;;;;;;;13.07;71.59;95339.94;5015801;28;20030;-90
2024/02/22 09:54:46;;;;;;;0.35;0.30;;;;;;;13.02;70.81;95326.22;4992188;28;20114;-88
2024/02/22 09:57:11;;;;;;;0.57;0.40;;;;;;;12.82;72.56;95332.81;5000114;28;20059;-87
2024/02/22 09:59:37;;;;;;;0.30;0.30;;;;;;;12.51;73.05;95307.53;4995846;28;20035;-86
2024/02/22 10:02:06;;;;;;;0.40;0.40;;;;;;;12.63;72.51;95305.09;4983216;28;20041;-87
2024/02/22 10:04:32;;;;;;;0.70;0.63;;;;;;;12.76;71.67;95303.44;4988240;28;20128;-85
2024/02/22 10:07:01;;;;;;;0.40;0.40;;;;;;;12.99;71.92;95311.94;4991433;28;20045;-86
2024/02/22 10:09:27;;;;;;;0.98;0.30;;;;;;;12.72;71.45;95313.72;4994382;28;20042;-87
2024/02/22 10:11:53;;;;;;;0.40;0.40;;;;;;;12.96;71.42;95298.72;4985717;28;20022;-88
2024/02/22 10:14:19;;;;;;;0.30;0.30;;;;;;;12.94;71.65;95309.47;4997430;28;20083;-87
2024/02/22 10:16:45;;;;;;;0.47;0.40;;;;;;;12.73;71.36;95290.97;4983423;28;20112;-84
2024/02/22 10:19:12;;;;;;;0.30;0.30;;;;;;;12.98;71.61;95307.00;5005901;28;20041;-89
2024/02/22 10:21:38;;;;;;;1.23;0.50;;;;;;;12.84;72.13;95294.84;5028061;28;20161;-85
2024/02/22 10:24:04;;;;;;;0.82;0.40;;;;;;;12.95;70.36;95279.66;4990082;28;20752;-85
2024/02/22 10:26:29;;;;;;;1.30;0.40;;;;;;;12.97;70.80;95287.97;4997563;28;20541;-88
2024/02/22 10:29:08;;;;;;;0.38;0.32;;;;;;;12.71;71.85;95273.03;4985520;28;20037;-88
2024/02/22 10:31:40;;;;;;;1.15;0.50;;;;;;;13.02;71.33;95264.31;5000504;28;20034;-82
2024/02/22 10:34:06;;;;;;;0.50;0.30;;;;;;;12.89;71.28;95270.44;5013263;28;20033;-84
2024/02/22 10:36:32;;;;;;;0.47;0.30;;;;;;;12.62;72.05;95272.22;4980044;28;20030;-85
2024/02/22 10:38:59;;;;;;;0.50;0.50;;;;;;;12.77;71.90;95271.03;5017082;28;20088;-82
2024/02/22 10:41:25;;;;;;;1.27;0.50;;;;;;;12.67;71.73;95255.66;4985576;28;20029;-83
2024/02/22 10:43:52;;;;;;;0.35;0.35;;;;;;;12.47;73.42;95259.59;5004774;28;20030;-87
2024/02/22 10:46:18;;;;;;;0.50;0.30;;;;;;;12.89;71.77;95258.13;4995920;28;20022;-88
2024/02/22 10:48:51;;;;;;;0.55;0.50;;;;;;;13.07;71.12;95232.81;4995928;28;20021;-85
2024/02/22 10:51:18;;;;;;;0.55;0.55;;;;;;;13.04;71.29;95237.84;5014534;28;20497;-85
2024/02/22 10:53:44;;;;;;;0.63;0.43;;;;;;;12.89;71.50;95234.63;4999006;28;20014;-83
2024/02/22 10:56:11;;;;;;;0.40;0.30;;;;;;;12.86;70.84;95230.00;4992969;28;20041;-85
2024/02/22 10:58:38;;;;;;;0.50;0.50;;;;;;;12.87;72.15;95220.34;4988506;28;20189;-89
2024/02/22 11:01:10;;;;;;;0.70;0.40;;;;;;;12.90;71.58;95204.03;5001960;28;20033;-88
2024/02/22 11:03:38;;;;;;;1.05;0.60;;;;;;;12.91;70.57;95195.91;5005221;28;20125;-85
2024/02/22 11:06:03;;;;;;;0.65;0.60;;;;;;;12.90;70.43;95196.22;4994410;28;20088;-88
2024/02/22 11:08:29;;;;;;;0.50;0.40;;;;;;;12.43;73.16;95185.59;5014601;28;20372;-88
2024/02/22 11:11:06;;;;;;;1.33;0.70;;;;;;;13.01;71.90;95196.69;4984743;28;20045;-85
2024/02/22 11:13:32;;;;;;;0.65;0.65;;;;;;;12.83;71.57;95175.00;5011545;28;20205;-84
2024/02/22 11:15:58;;;;;;;0.60;0.60;;;;;;;13.00;70.90;95182.09;5024918;28;20600;-87
2024/02/22 11:18:24;;;;;;;2.03;0.60;;;;;;;13.07;70.69;95175.31;4991740;28;20080;-87
2024/02/22 11:20:50;;;;;;;0.50;0.40;;;;;;;13.04;71.42;95164.69;5000917;28;20515;-90
2024/02/22 11:23:20;;;;;;;0.50;0.50;;;;;;;12.81;72.28;95157.03;4981036;28;20030;-88
2024/02/22 11:25:46;;;;;;;1.00;0.60;;;;;;;12.74;71.53;95135.84;4981895;28;20066;-87
2024/02/22 11:28:12;;;;;;;0.63;0.40;;;;;;;12.80;72.27;95129.41;5016194;28;20037;-85
2024/02/22 11:30:39;;;;;;;1.02;0.57;;;;;;;12.72;71.61;95117.13;4983109;28;20401;-87